sensor_id;sensor_type;location;lat;lon;timestamp;P1;durP1;ratioP1;P2;durP2;ratioP2
23608;SDS011;11982;50.810;4.442;2023-11-22T00:01:36;77.07;;;37.05;;
23608;SDS011;11982;50.810;4.442;2023-11-22T00:04:02;75.93;;;38.28;;
23608;SDS011;11982;50.810;4.442;2023-11-22T00:06:28;75.55;;;37.78;;
23608;SDS011;11982;50.810;4.442;2023-11-22T00:08:55;80.63;;;38.38;;
23608;SDS011;11982;50.810;4.442;2023-11-22T00:11:20;73.72;;;38.00;;
23608;SDS011;11982;50.810;4.442;2023-11-22T00:13:46;78.15;;;39.33;;
23608;SDS011;11982;50.810;4.442;2023-11-22T00:16:14;73.55;;;35.97;;
23608;SDS011;11982;50.810;4.442;2023-11-22T00:18:39;79.53;;;37.70;;
23608;SDS011;11982;50.810;4.442;2023-11-22T00:21:05;79.22;;;38.13;;
23608;SDS011;11982;50.810;4.442;2023-11-22T00:23:31;78.00;;;37.35;;
23608;SDS011;11982;50.810;4.442;2023-11-22T00:25:57;83.78;;;39.15;;
23608;SDS011;11982;50.810;4.442;2023-11-22T00:28:23;80.80;;;38.58;;
23608;SDS011;11982;50.810;4.442;2023-11-22T00:30:49;86.63;;;38.50;;
23608;SDS011;11982;50.810;4.442;2023-11-22T00:33:15;72.57;;;37.80;;
23608;SDS011;11982;50.810;4.442;2023-11-22T00:35:43;85.80;;;39.50;;
23608;SDS011;11982;50.810;4.442;2023-11-22T00:38:08;81.47;;;39.58;;
23608;SDS011;11982;50.810;4.442;2023-11-22T00:40:34;83.07;;;38.15;;
23608;SDS011;11982;50.810;4.442;2023-11-22T00:43:00;92.00;;;41.67;;
23608;SDS011;11982;50.810;4.442;2023-11-22T00:45:25;86.65;;;40.45;;
23608;SDS011;11982;50.810;4.442;2023-11-22T00:47:51;88.95;;;40.50;;
23608;SDS011;11982;50.810;4.442;2023-11-22T00:50:17;84.00;;;41.55;;
23608;SDS011;11982;50.810;4.442;2023-11-22T00:52:46;93.47;;;41.15;;
23608;SDS011;11982;50.810;4.442;2023-11-22T00:55:12;86.03;;;41.10;;
23608;SDS011;11982;50.810;4.442;2023-11-22T00:57:39;81.43;;;38.67;;
23608;SDS011;11982;50.810;4.442;2023-11-22T01:00:05;89.70;;;41.58;;
23608;SDS011;11982;50.810;4.442;2023-11-22T01:02:35;86.38;;;39.10;;
23608;SDS011;11982;50.810;4.442;2023-11-22T01:05:05;82.97;;;39.63;;
23608;SDS011;11982;50.810;4.442;2023-11-22T01:07:36;81.88;;;37.25;;
23608;SDS011;11982;50.810;4.442;2023-11-22T01:10:02;81.22;;;37.85;;
23608;SDS011;11982;50.810;4.442;2023-11-22T01:12:27;93.43;;;41.42;;
23608;SDS011;11982;50.810;4.442;2023-11-22T01:14:53;90.00;;;39.08;;
23608;SDS011;11982;50.810;4.442;2023-11-22T01:17:19;85.47;;;40.30;;
23608;SDS011;11982;50.810;4.442;2023-11-22T01:19:44;86.35;;;41.20;;
23608;SDS011;11982;50.810;4.442;2023-11-22T01:22:10;85.18;;;36.63;;
23608;SDS011;11982;50.810;4.442;2023-11-22T01:24:36;84.65;;;39.22;;
23608;SDS011;11982;50.810;4.442;2023-11-22T01:27:02;91.90;;;40.50;;
23608;SDS011;11982;50.810;4.442;2023-11-22T01:29:29;94.32;;;40.60;;
23608;SDS011;11982;50.810;4.442;2023-11-22T01:31:54;87.57;;;40.03;;
23608;SDS011;11982;50.810;4.442;2023-11-22T01:34:20;84.25;;;38.95;;
23608;SDS011;11982;50.810;4.442;2023-11-22T01:36:48;84.55;;;36.70;;
23608;SDS011;11982;50.810;4.442;2023-11-22T01:39:15;83.35;;;38.13;;
23608;SDS011;11982;50.810;4.442;2023-11-22T01:41:43;84.72;;;38.25;;
23608;SDS011;11982;50.810;4.442;2023-11-22T01:44:09;87.93;;;40.50;;
23608;SDS011;11982;50.810;4.442;2023-11-22T01:46:35;85.32;;;39.35;;
23608;SDS011;11982;50.810;4.442;2023-11-22T01:49:02;88.72;;;39.97;;
23608;SDS011;11982;50.810;4.442;2023-11-22T01:51:28;86.00;;;37.45;;
23608;SDS011;11982;50.810;4.442;2023-11-22T01:53:54;86.18;;;40.58;;
23608;SDS011;11982;50.810;4.442;2023-11-22T01:56:23;89.60;;;40.70;;
23608;SDS011;11982;50.810;4.442;2023-11-22T01:58:51;86.90;;;39.40;;
23608;SDS011;11982;50.810;4.442;2023-11-22T02:01:19;81.88;;;38.05;;
23608;SDS011;11982;50.810;4.442;2023-11-22T02:03:45;84.05;;;39.45;;
23608;SDS011;11982;50.810;4.442;2023-11-22T02:06:13;86.07;;;38.97;;
23608;SDS011;11982;50.810;4.442;2023-11-22T02:08:43;85.63;;;38.58;;
23608;SDS011;11982;50.810;4.442;2023-11-22T02:11:09;80.97;;;38.25;;
23608;SDS011;11982;50.810;4.442;2023-11-22T02:13:35;77.50;;;37.13;;
23608;SDS011;11982;50.810;4.442;2023-11-22T02:16:01;75.95;;;38.13;;
23608;SDS011;11982;50.810;4.442;2023-11-22T02:18:28;77.63;;;39.10;;
23608;SDS011;11982;50.810;4.442;2023-11-22T02:20:54;75.90;;;35.35;;
23608;SDS011;11982;50.810;4.442;2023-11-22T02:23:20;78.50;;;36.97;;
23608;SDS011;11982;50.810;4.442;2023-11-22T02:25:45;83.32;;;37.15;;
23608;SDS011;11982;50.810;4.442;2023-11-22T02:28:12;78.15;;;38.65;;
23608;SDS011;11982;50.810;4.442;2023-11-22T02:30:37;83.80;;;37.50;;
23608;SDS011;11982;50.810;4.442;2023-11-22T02:33:03;79.13;;;37.35;;
23608;SDS011;11982;50.810;4.442;2023-11-22T02:35:32;79.55;;;36.47;;
23608;SDS011;11982;50.810;4.442;2023-11-22T02:37:58;78.63;;;37.13;;
23608;SDS011;11982;50.810;4.442;2023-11-22T02:40:25;83.60;;;38.50;;
23608;SDS011;11982;50.810;4.442;2023-11-22T02:42:51;78.32;;;37.63;;
23608;SDS011;11982;50.810;4.442;2023-11-22T02:45:19;80.07;;;38.80;;
23608;SDS011;11982;50.810;4.442;2023-11-22T02:47:49;75.10;;;37.55;;
23608;SDS011;11982;50.810;4.442;2023-11-22T02:50:16;82.78;;;38.58;;
23608;SDS011;11982;50.810;4.442;2023-11-22T02:52:42;77.85;;;35.60;;
23608;SDS011;11982;50.810;4.442;2023-11-22T02:55:08;82.68;;;37.28;;
23608;SDS011;11982;50.810;4.442;2023-11-22T02:57:35;79.57;;;38.00;;
23608;SDS011;11982;50.810;4.442;2023-11-22T03:00:06;79.30;;;35.92;;
23608;SDS011;11982;50.810;4.442;2023-11-22T03:02:33;77.70;;;35.65;;
23608;SDS011;11982;50.810;4.442;2023-11-22T03:04:59;70.55;;;32.42;;
23608;SDS011;11982;50.810;4.442;2023-11-22T03:07:25;72.00;;;34.65;;
23608;SDS011;11982;50.810;4.442;2023-11-22T03:09:51;75.60;;;33.08;;
23608;SDS011;11982;50.810;4.442;2023-11-22T03:12:18;74.22;;;36.58;;
23608;SDS011;11982;50.810;4.442;2023-11-22T03:14:45;83.25;;;36.97;;
23608;SDS011;11982;50.810;4.442;2023-11-22T03:17:11;77.07;;;37.88;;
23608;SDS011;11982;50.810;4.442;2023-11-22T03:19:39;70.65;;;35.75;;
23608;SDS011;11982;50.810;4.442;2023-11-22T03:22:05;71.55;;;34.92;;
23608;SDS011;11982;50.810;4.442;2023-11-22T03:24:31;75.25;;;35.53;;
23608;SDS011;11982;50.810;4.442;2023-11-22T03:27:02;74.07;;;37.40;;
23608;SDS011;11982;50.810;4.442;2023-11-22T03:29:28;71.40;;;34.97;;
23608;SDS011;11982;50.810;4.442;2023-11-22T03:31:54;73.88;;;35.67;;
23608;SDS011;11982;50.810;4.442;2023-11-22T03:34:20;69.65;;;35.50;;
23608;SDS011;11982;50.810;4.442;2023-11-22T03:36:46;71.60;;;36.53;;
23608;SDS011;11982;50.810;4.442;2023-11-22T03:39:13;73.25;;;36.30;;
23608;SDS011;11982;50.810;4.442;2023-11-22T03:41:40;69.07;;;33.92;;
23608;SDS011;11982;50.810;4.442;2023-11-22T03:44:06;76.90;;;35.05;;
23608;SDS011;11982;50.810;4.442;2023-11-22T03:46:36;63.38;;;34.13;;
23608;SDS011;11982;50.810;4.442;2023-11-22T03:49:05;68.10;;;34.13;;
23608;SDS011;11982;50.810;4.442;2023-11-22T03:51:32;76.80;;;34.80;;
23608;SDS011;11982;50.810;4.442;2023-11-22T03:53:58;67.07;;;33.00;;
23608;SDS011;11982;50.810;4.442;2023-11-22T03:56:24;68.90;;;34.97;;
23608;SDS011;11982;50.810;4.442;2023-11-22T03:58:49;67.72;;;33.83;;
23608;SDS011;11982;50.810;4.442;2023-11-22T04:01:15;70.10;;;35.45;;
23608;SDS011;11982;50.810;4.442;2023-11-22T04:03:41;71.25;;;35.05;;
23608;SDS011;11982;50.810;4.442;2023-11-22T04:06:07;65.10;;;34.63;;
23608;SDS011;11982;50.810;4.442;2023-11-22T04:08:33;68.00;;;33.10;;
23608;SDS011;11982;50.810;4.442;2023-11-22T04:10:59;63.92;;;32.80;;
23608;SDS011;11982;50.810;4.442;2023-11-22T04:13:25;65.55;;;33.55;;
23608;SDS011;11982;50.810;4.442;2023-11-22T04:15:51;66.53;;;32.40;;
23608;SDS011;11982;50.810;4.442;2023-11-22T04:18:17;61.42;;;32.63;;
23608;SDS011;11982;50.810;4.442;2023-11-22T04:20:42;64.25;;;32.55;;
23608;SDS011;11982;50.810;4.442;2023-11-22T04:23:09;59.58;;;32.50;;
23608;SDS011;11982;50.810;4.442;2023-11-22T04:25:39;55.47;;;30.88;;
23608;SDS011;11982;50.810;4.442;2023-11-22T04:28:06;65.60;;;32.33;;
23608;SDS011;11982;50.810;4.442;2023-11-22T04:30:34;55.53;;;31.30;;
23608;SDS011;11982;50.810;4.442;2023-11-22T04:32:59;60.92;;;31.77;;
23608;SDS011;11982;50.810;4.442;2023-11-22T04:35:25;60.80;;;33.00;;
23608;SDS011;11982;50.810;4.442;2023-11-22T04:37:51;64.28;;;32.42;;
23608;SDS011;11982;50.810;4.442;2023-11-22T04:40:17;62.50;;;32.85;;
23608;SDS011;11982;50.810;4.442;2023-11-22T04:42:43;67.88;;;33.08;;
23608;SDS011;11982;50.810;4.442;2023-11-22T04:45:09;67.30;;;33.30;;
23608;SDS011;11982;50.810;4.442;2023-11-22T04:47:35;68.90;;;34.63;;
23608;SDS011;11982;50.810;4.442;2023-11-22T04:50:01;64.88;;;32.38;;
23608;SDS011;11982;50.810;4.442;2023-11-22T04:52:26;66.80;;;33.25;;
23608;SDS011;11982;50.810;4.442;2023-11-22T04:54:52;67.30;;;33.97;;
23608;SDS011;11982;50.810;4.442;2023-11-22T04:57:18;71.53;;;34.72;;
23608;SDS011;11982;50.810;4.442;2023-11-22T04:59:45;70.28;;;34.95;;
23608;SDS011;11982;50.810;4.442;2023-11-22T05:02:10;68.85;;;33.45;;
23608;SDS011;11982;50.810;4.442;2023-11-22T05:04:36;75.65;;;34.38;;
23608;SDS011;11982;50.810;4.442;2023-11-22T05:07:02;70.60;;;33.53;;
23608;SDS011;11982;50.810;4.442;2023-11-22T05:09:28;76.70;;;33.58;;
23608;SDS011;11982;50.810;4.442;2023-11-22T05:11:55;70.18;;;34.75;;
23608;SDS011;11982;50.810;4.442;2023-11-22T05:14:20;73.57;;;36.67;;
23608;SDS011;11982;50.810;4.442;2023-11-22T05:16:46;78.78;;;35.45;;
23608;SDS011;11982;50.810;4.442;2023-11-22T05:19:12;82.22;;;37.05;;
23608;SDS011;11982;50.810;4.442;2023-11-22T05:21:38;77.35;;;37.53;;
23608;SDS011;11982;50.810;4.442;2023-11-22T05:24:04;72.22;;;35.63;;
23608;SDS011;11982;50.810;4.442;2023-11-22T05:26:30;75.90;;;36.97;;
23608;SDS011;11982;50.810;4.442;2023-11-22T05:28:55;79.03;;;36.72;;
23608;SDS011;11982;50.810;4.442;2023-11-22T05:31:21;81.18;;;36.83;;
23608;SDS011;11982;50.810;4.442;2023-11-22T05:33:48;74.57;;;33.53;;
23608;SDS011;11982;50.810;4.442;2023-11-22T05:36:13;74.97;;;35.47;;
23608;SDS011;11982;50.810;4.442;2023-11-22T05:38:41;78.38;;;34.95;;
23608;SDS011;11982;50.810;4.442;2023-11-22T05:41:07;78.75;;;34.78;;
23608;SDS011;11982;50.810;4.442;2023-11-22T05:46:26;84.55;;;35.88;;
23608;SDS011;11982;50.810;4.442;2023-11-22T05:48:52;74.43;;;34.78;;
23608;SDS011;11982;50.810;4.442;2023-11-22T05:51:17;69.28;;;34.17;;
23608;SDS011;11982;50.810;4.442;2023-11-22T05:53:43;64.90;;;32.70;;
23608;SDS011;11982;50.810;4.442;2023-11-22T05:56:09;65.55;;;33.22;;
23608;SDS011;11982;50.810;4.442;2023-11-22T05:58:35;65.30;;;33.38;;
23608;SDS011;11982;50.810;4.442;2023-11-22T06:01:10;64.60;;;31.98;;
23608;SDS011;11982;50.810;4.442;2023-11-22T06:03:38;60.97;;;31.05;;
23608;SDS011;11982;50.810;4.442;2023-11-22T06:06:04;63.65;;;31.80;;
23608;SDS011;11982;50.810;4.442;2023-11-22T06:08:30;60.80;;;31.85;;
23608;SDS011;11982;50.810;4.442;2023-11-22T06:10:56;63.83;;;31.50;;
23608;SDS011;11982;50.810;4.442;2023-11-22T06:13:23;65.03;;;33.40;;
23608;SDS011;11982;50.810;4.442;2023-11-22T06:15:49;61.42;;;30.40;;
23608;SDS011;11982;50.810;4.442;2023-11-22T06:18:15;60.63;;;31.77;;
23608;SDS011;11982;50.810;4.442;2023-11-22T06:20:41;66.90;;;33.90;;
23608;SDS011;11982;50.810;4.442;2023-11-22T06:23:07;67.10;;;32.83;;
23608;SDS011;11982;50.810;4.442;2023-11-22T06:25:33;80.35;;;32.72;;
23608;SDS011;11982;50.810;4.442;2023-11-22T06:28:01;70.70;;;32.38;;
23608;SDS011;11982;50.810;4.442;2023-11-22T06:30:27;74.13;;;32.55;;
23608;SDS011;11982;50.810;4.442;2023-11-22T06:32:53;70.90;;;33.10;;
23608;SDS011;11982;50.810;4.442;2023-11-22T06:35:21;70.68;;;32.97;;
23608;SDS011;11982;50.810;4.442;2023-11-22T06:37:47;84.97;;;44.50;;
23608;SDS011;11982;50.810;4.442;2023-11-22T06:40:13;74.78;;;34.40;;
23608;SDS011;11982;50.810;4.442;2023-11-22T06:42:42;73.43;;;31.60;;
23608;SDS011;11982;50.810;4.442;2023-11-22T06:45:08;74.07;;;33.25;;
23608;SDS011;11982;50.810;4.442;2023-11-22T06:47:38;61.85;;;31.70;;
23608;SDS011;11982;50.810;4.442;2023-11-22T06:50:04;64.88;;;32.30;;
23608;SDS011;11982;50.810;4.442;2023-11-22T06:52:34;70.05;;;32.13;;
23608;SDS011;11982;50.810;4.442;2023-11-22T06:55:01;67.43;;;32.10;;
23608;SDS011;11982;50.810;4.442;2023-11-22T07:06:20;59.22;;;30.13;;
23608;SDS011;11982;50.810;4.442;2023-11-22T07:08:47;58.22;;;30.33;;
23608;SDS011;11982;50.810;4.442;2023-11-22T07:11:20;54.63;;;29.25;;
23608;SDS011;11982;50.810;4.442;2023-11-22T07:13:48;58.53;;;29.52;;
23608;SDS011;11982;50.810;4.442;2023-11-22T07:16:14;62.90;;;32.53;;
23608;SDS011;11982;50.810;4.442;2023-11-22T07:18:40;62.13;;;31.13;;
23608;SDS011;11982;50.810;4.442;2023-11-22T07:21:05;63.38;;;32.10;;
23608;SDS011;11982;50.810;4.442;2023-11-22T07:23:31;63.28;;;32.17;;
23608;SDS011;11982;50.810;4.442;2023-11-22T07:25:58;65.95;;;31.75;;
23608;SDS011;11982;50.810;4.442;2023-11-22T07:28:23;58.03;;;30.70;;
23608;SDS011;11982;50.810;4.442;2023-11-22T07:30:49;66.22;;;32.72;;
23608;SDS011;11982;50.810;4.442;2023-11-22T07:33:16;62.25;;;32.47;;
23608;SDS011;11982;50.810;4.442;2023-11-22T07:35:45;65.93;;;32.28;;
23608;SDS011;11982;50.810;4.442;2023-11-22T07:38:11;66.25;;;33.17;;
23608;SDS011;11982;50.810;4.442;2023-11-22T07:40:37;65.85;;;31.85;;
23608;SDS011;11982;50.810;4.442;2023-11-22T07:43:03;60.10;;;31.35;;
23608;SDS011;11982;50.810;4.442;2023-11-22T07:45:31;64.63;;;32.38;;
23608;SDS011;11982;50.810;4.442;2023-11-22T07:47:57;64.55;;;33.42;;
23608;SDS011;11982;50.810;4.442;2023-11-22T07:50:25;60.28;;;30.35;;
23608;SDS011;11982;50.810;4.442;2023-11-22T07:52:51;58.50;;;30.55;;
23608;SDS011;11982;50.810;4.442;2023-11-22T07:55:17;55.63;;;30.38;;
23608;SDS011;11982;50.810;4.442;2023-11-22T07:57:45;55.65;;;29.95;;
23608;SDS011;11982;50.810;4.442;2023-11-22T08:00:11;55.33;;;28.15;;
23608;SDS011;11982;50.810;4.442;2023-11-22T08:02:38;57.97;;;30.83;;
23608;SDS011;11982;50.810;4.442;2023-11-22T08:05:08;58.03;;;31.42;;
23608;SDS011;11982;50.810;4.442;2023-11-22T08:10:14;48.83;;;26.65;;
23608;SDS011;11982;50.810;4.442;2023-11-22T08:12:44;51.13;;;27.48;;
23608;SDS011;11982;50.810;4.442;2023-11-22T08:15:11;46.08;;;26.50;;
23608;SDS011;11982;50.810;4.442;2023-11-22T08:17:40;52.97;;;27.70;;
23608;SDS011;11982;50.810;4.442;2023-11-22T08:20:07;51.38;;;28.00;;
23608;SDS011;11982;50.810;4.442;2023-11-22T08:25:07;51.65;;;27.13;;
23608;SDS011;11982;50.810;4.442;2023-11-22T08:27:34;49.72;;;26.38;;
23608;SDS011;11982;50.810;4.442;2023-11-22T08:30:00;51.25;;;28.35;;
23608;SDS011;11982;50.810;4.442;2023-11-22T08:32:32;55.40;;;28.23;;
23608;SDS011;11982;50.810;4.442;2023-11-22T08:34:58;50.75;;;25.90;;
23608;SDS011;11982;50.810;4.442;2023-11-22T08:37:24;51.55;;;26.30;;
23608;SDS011;11982;50.810;4.442;2023-11-22T08:39:50;49.05;;;26.60;;
23608;SDS011;11982;50.810;4.442;2023-11-22T08:42:15;47.22;;;26.08;;
23608;SDS011;11982;50.810;4.442;2023-11-22T08:44:41;49.90;;;26.27;;
23608;SDS011;11982;50.810;4.442;2023-11-22T08:47:07;53.70;;;27.67;;
23608;SDS011;11982;50.810;4.442;2023-11-22T08:49:33;46.00;;;25.58;;
23608;SDS011;11982;50.810;4.442;2023-11-22T08:51:59;45.20;;;25.58;;
23608;SDS011;11982;50.810;4.442;2023-11-22T08:54:28;48.33;;;26.55;;
23608;SDS011;11982;50.810;4.442;2023-11-22T08:57:14;47.17;;;26.30;;
23608;SDS011;11982;50.810;4.442;2023-11-22T08:59:40;48.38;;;26.58;;
23608;SDS011;11982;50.810;4.442;2023-11-22T09:02:06;46.15;;;26.27;;
23608;SDS011;11982;50.810;4.442;2023-11-22T09:04:37;51.33;;;27.98;;
23608;SDS011;11982;50.810;4.442;2023-11-22T09:07:03;46.80;;;24.88;;
23608;SDS011;11982;50.810;4.442;2023-11-22T09:09:30;48.33;;;26.73;;
23608;SDS011;11982;50.810;4.442;2023-11-22T09:11:57;45.45;;;26.45;;
23608;SDS011;11982;50.810;4.442;2023-11-22T09:14:23;49.40;;;27.75;;
23608;SDS011;11982;50.810;4.442;2023-11-22T09:16:52;46.63;;;25.80;;
23608;SDS011;11982;50.810;4.442;2023-11-22T09:19:22;51.22;;;27.15;;
23608;SDS011;11982;50.810;4.442;2023-11-22T09:21:49;48.70;;;26.70;;
23608;SDS011;11982;50.810;4.442;2023-11-22T09:24:15;49.60;;;26.95;;
23608;SDS011;11982;50.810;4.442;2023-11-22T09:26:41;47.92;;;26.65;;
23608;SDS011;11982;50.810;4.442;2023-11-22T09:29:07;47.88;;;26.95;;
23608;SDS011;11982;50.810;4.442;2023-11-22T09:31:34;50.20;;;25.85;;
23608;SDS011;11982;50.810;4.442;2023-11-22T09:34:00;47.13;;;26.00;;
23608;SDS011;11982;50.810;4.442;2023-11-22T09:36:28;44.40;;;24.25;;
23608;SDS011;11982;50.810;4.442;2023-11-22T09:38:57;44.10;;;26.27;;
23608;SDS011;11982;50.810;4.442;2023-11-22T09:41:23;42.58;;;24.02;;
23608;SDS011;11982;50.810;4.442;2023-11-22T09:43:50;45.88;;;26.02;;
23608;SDS011;11982;50.810;4.442;2023-11-22T09:46:17;43.40;;;25.38;;
23608;SDS011;11982;50.810;4.442;2023-11-22T09:48:46;45.45;;;25.55;;
23608;SDS011;11982;50.810;4.442;2023-11-22T09:53:56;43.17;;;25.02;;
23608;SDS011;11982;50.810;4.442;2023-11-22T09:56:29;47.50;;;25.73;;
23608;SDS011;11982;50.810;4.442;2023-11-22T09:58:58;45.33;;;25.90;;
23608;SDS011;11982;50.810;4.442;2023-11-22T10:01:28;40.55;;;23.88;;
23608;SDS011;11982;50.810;4.442;2023-11-22T10:03:56;41.45;;;24.23;;
23608;SDS011;11982;50.810;4.442;2023-11-22T10:06:23;43.42;;;24.55;;
23608;SDS011;11982;50.810;4.442;2023-11-22T10:08:49;38.40;;;23.05;;
23608;SDS011;11982;50.810;4.442;2023-11-22T10:11:16;45.20;;;23.75;;
23608;SDS011;11982;50.810;4.442;2023-11-22T10:13:43;39.88;;;22.75;;
23608;SDS011;11982;50.810;4.442;2023-11-22T10:16:12;38.05;;;22.67;;
23608;SDS011;11982;50.810;4.442;2023-11-22T10:18:47;36.50;;;22.15;;
23608;SDS011;11982;50.810;4.442;2023-11-22T10:21:20;36.33;;;21.27;;
23608;SDS011;11982;50.810;4.442;2023-11-22T10:24:00;39.10;;;22.42;;
23608;SDS011;11982;50.810;4.442;2023-11-22T10:26:27;35.40;;;21.30;;
23608;SDS011;11982;50.810;4.442;2023-11-22T10:28:53;37.42;;;21.60;;
23608;SDS011;11982;50.810;4.442;2023-11-22T10:31:21;34.70;;;20.60;;
23608;SDS011;11982;50.810;4.442;2023-11-22T10:33:48;37.22;;;20.77;;
23608;SDS011;11982;50.810;4.442;2023-11-22T10:36:15;37.88;;;21.13;;
23608;SDS011;11982;50.810;4.442;2023-11-22T10:38:41;36.47;;;22.38;;
23608;SDS011;11982;50.810;4.442;2023-11-22T10:41:11;36.83;;;21.23;;
23608;SDS011;11982;50.810;4.442;2023-11-22T10:43:38;41.95;;;23.10;;
23608;SDS011;11982;50.810;4.442;2023-11-22T10:46:05;40.63;;;23.15;;
23608;SDS011;11982;50.810;4.442;2023-11-22T10:48:31;35.78;;;21.17;;
23608;SDS011;11982;50.810;4.442;2023-11-22T10:51:01;35.38;;;20.70;;
23608;SDS011;11982;50.810;4.442;2023-11-22T10:58:47;32.47;;;20.48;;
23608;SDS011;11982;50.810;4.442;2023-11-22T11:01:17;32.25;;;19.60;;
23608;SDS011;11982;50.810;4.442;2023-11-22T11:04:33;31.52;;;19.60;;
23608;SDS011;11982;50.810;4.442;2023-11-22T11:06:35;31.88;;;19.35;;
23608;SDS011;11982;50.810;4.442;2023-11-22T11:09:02;30.92;;;19.48;;
23608;SDS011;11982;50.810;4.442;2023-11-22T11:14:03;30.23;;;18.90;;
23608;SDS011;11982;50.810;4.442;2023-11-22T11:16:30;32.72;;;19.10;;
23608;SDS011;11982;50.810;4.442;2023-11-22T11:19:04;31.55;;;18.63;;
23608;SDS011;11982;50.810;4.442;2023-11-22T11:21:33;28.75;;;18.42;;
23608;SDS011;11982;50.810;4.442;2023-11-22T11:23:58;36.17;;;19.83;;
23608;SDS011;11982;50.810;4.442;2023-11-22T11:26:28;35.22;;;19.35;;
23608;SDS011;11982;50.810;4.442;2023-11-22T11:28:56;32.22;;;19.92;;
23608;SDS011;11982;50.810;4.442;2023-11-22T11:31:22;35.03;;;19.55;;
23608;SDS011;11982;50.810;4.442;2023-11-22T11:36:23;30.60;;;18.45;;
23608;SDS011;11982;50.810;4.442;2023-11-22T11:39:00;31.90;;;18.80;;
23608;SDS011;11982;50.810;4.442;2023-11-22T11:41:29;31.77;;;18.30;;
23608;SDS011;11982;50.810;4.442;2023-11-22T11:43:58;31.40;;;18.88;;
23608;SDS011;11982;50.810;4.442;2023-11-22T11:46:26;35.38;;;19.35;;
23608;SDS011;11982;50.810;4.442;2023-11-22T11:48:54;31.67;;;18.70;;
23608;SDS011;11982;50.810;4.442;2023-11-22T11:51:22;29.98;;;18.20;;
23608;SDS011;11982;50.810;4.442;2023-11-22T11:53:48;33.65;;;17.65;;
23608;SDS011;11982;50.810;4.442;2023-11-22T11:56:15;25.75;;;16.00;;
23608;SDS011;11982;50.810;4.442;2023-11-22T11:58:41;30.10;;;17.10;;
23608;SDS011;11982;50.810;4.442;2023-11-22T12:01:08;30.85;;;18.70;;
23608;SDS011;11982;50.810;4.442;2023-11-22T12:03:36;27.85;;;17.17;;
23608;SDS011;11982;50.810;4.442;2023-11-22T12:06:03;28.58;;;17.75;;
23608;SDS011;11982;50.810;4.442;2023-11-22T12:08:32;25.30;;;16.75;;
23608;SDS011;11982;50.810;4.442;2023-11-22T12:11:01;26.13;;;16.88;;
23608;SDS011;11982;50.810;4.442;2023-11-22T12:13:33;26.67;;;16.13;;
23608;SDS011;11982;50.810;4.442;2023-11-22T12:16:00;25.02;;;15.82;;
23608;SDS011;11982;50.810;4.442;2023-11-22T12:18:43;25.67;;;16.30;;
23608;SDS011;11982;50.810;4.442;2023-11-22T12:21:11;28.65;;;16.98;;
23608;SDS011;11982;50.810;4.442;2023-11-22T12:23:40;33.25;;;16.98;;
23608;SDS011;11982;50.810;4.442;2023-11-22T12:26:17;29.80;;;16.92;;
23608;SDS011;11982;50.810;4.442;2023-11-22T12:28:45;26.58;;;16.20;;
23608;SDS011;11982;50.810;4.442;2023-11-22T12:31:14;26.45;;;16.73;;
23608;SDS011;11982;50.810;4.442;2023-11-22T12:33:48;26.63;;;16.00;;
23608;SDS011;11982;50.810;4.442;2023-11-22T12:36:15;26.00;;;15.73;;
23608;SDS011;11982;50.810;4.442;2023-11-22T12:38:43;33.00;;;17.63;;
23608;SDS011;11982;50.810;4.442;2023-11-22T12:41:20;26.88;;;16.45;;
23608;SDS011;11982;50.810;4.442;2023-11-22T12:44:01;26.60;;;16.13;;
23608;SDS011;11982;50.810;4.442;2023-11-22T12:46:44;29.45;;;17.65;;
23608;SDS011;11982;50.810;4.442;2023-11-22T12:49:35;31.63;;;19.48;;
23608;SDS011;11982;50.810;4.442;2023-11-22T12:54:37;30.35;;;18.08;;
23608;SDS011;11982;50.810;4.442;2023-11-22T12:57:03;34.17;;;19.70;;
23608;SDS011;11982;50.810;4.442;2023-11-22T12:59:35;32.78;;;19.35;;
23608;SDS011;11982;50.810;4.442;2023-11-22T13:02:00;28.92;;;18.05;;
23608;SDS011;11982;50.810;4.442;2023-11-22T13:04:27;31.23;;;19.05;;
23608;SDS011;11982;50.810;4.442;2023-11-22T13:06:54;34.53;;;19.63;;
23608;SDS011;11982;50.810;4.442;2023-11-22T13:09:20;34.35;;;20.08;;
23608;SDS011;11982;50.810;4.442;2023-11-22T13:11:46;35.33;;;20.08;;
23608;SDS011;11982;50.810;4.442;2023-11-22T13:14:28;35.30;;;19.77;;
23608;SDS011;11982;50.810;4.442;2023-11-22T13:19:36;40.45;;;21.17;;
23608;SDS011;11982;50.810;4.442;2023-11-22T13:22:02;40.63;;;21.15;;
23608;SDS011;11982;50.810;4.442;2023-11-22T13:24:28;34.80;;;20.25;;
23608;SDS011;11982;50.810;4.442;2023-11-22T13:26:54;37.13;;;20.98;;
23608;SDS011;11982;50.810;4.442;2023-11-22T13:29:19;37.90;;;21.15;;
23608;SDS011;11982;50.810;4.442;2023-11-22T13:31:45;39.72;;;22.88;;
23608;SDS011;11982;50.810;4.442;2023-11-22T13:34:11;44.05;;;22.00;;
23608;SDS011;11982;50.810;4.442;2023-11-22T13:36:37;45.60;;;22.67;;
23608;SDS011;11982;50.810;4.442;2023-11-22T13:39:09;41.83;;;23.20;;
23608;SDS011;11982;50.810;4.442;2023-11-22T13:41:34;42.15;;;22.65;;
23608;SDS011;11982;50.810;4.442;2023-11-22T13:44:00;38.60;;;21.88;;
23608;SDS011;11982;50.810;4.442;2023-11-22T13:46:27;40.47;;;23.02;;
23608;SDS011;11982;50.810;4.442;2023-11-22T13:48:53;38.53;;;23.80;;
23608;SDS011;11982;50.810;4.442;2023-11-22T13:51:18;40.95;;;24.08;;
23608;SDS011;11982;50.810;4.442;2023-11-22T13:53:44;42.45;;;23.67;;
23608;SDS011;11982;50.810;4.442;2023-11-22T13:56:16;45.25;;;25.33;;
23608;SDS011;11982;50.810;4.442;2023-11-22T13:58:42;42.67;;;24.80;;
23608;SDS011;11982;50.810;4.442;2023-11-22T14:01:11;43.50;;;24.40;;
23608;SDS011;11982;50.810;4.442;2023-11-22T14:03:41;43.78;;;22.55;;
23608;SDS011;11982;50.810;4.442;2023-11-22T14:06:07;39.22;;;23.23;;
23608;SDS011;11982;50.810;4.442;2023-11-22T14:08:34;38.00;;;23.02;;
23608;SDS011;11982;50.810;4.442;2023-11-22T14:11:04;36.55;;;21.90;;
23608;SDS011;11982;50.810;4.442;2023-11-22T14:13:30;38.45;;;22.10;;
23608;SDS011;11982;50.810;4.442;2023-11-22T14:15:56;38.55;;;22.38;;
23608;SDS011;11982;50.810;4.442;2023-11-22T14:18:22;37.97;;;21.65;;
23608;SDS011;11982;50.810;4.442;2023-11-22T14:20:48;37.92;;;21.58;;
23608;SDS011;11982;50.810;4.442;2023-11-22T14:23:14;39.05;;;21.13;;
23608;SDS011;11982;50.810;4.442;2023-11-22T14:25:39;38.40;;;21.95;;
23608;SDS011;11982;50.810;4.442;2023-11-22T14:28:05;36.60;;;21.30;;
23608;SDS011;11982;50.810;4.442;2023-11-22T14:30:31;38.65;;;22.10;;
23608;SDS011;11982;50.810;4.442;2023-11-22T14:33:00;38.20;;;21.63;;
23608;SDS011;11982;50.810;4.442;2023-11-22T14:35:31;36.60;;;21.48;;
23608;SDS011;11982;50.810;4.442;2023-11-22T14:40:40;39.83;;;20.60;;
23608;SDS011;11982;50.810;4.442;2023-11-22T14:43:08;44.55;;;21.60;;
23608;SDS011;11982;50.810;4.442;2023-11-22T14:45:33;40.53;;;21.85;;
23608;SDS011;11982;50.810;4.442;2023-11-22T14:47:59;41.65;;;22.58;;
23608;SDS011;11982;50.810;4.442;2023-11-22T14:50:26;38.00;;;21.27;;
23608;SDS011;11982;50.810;4.442;2023-11-22T14:52:53;36.53;;;20.80;;
23608;SDS011;11982;50.810;4.442;2023-11-22T14:55:19;41.60;;;21.60;;
23608;SDS011;11982;50.810;4.442;2023-11-22T14:57:47;40.83;;;20.80;;
23608;SDS011;11982;50.810;4.442;2023-11-22T15:00:15;40.65;;;20.77;;